Time;durP1;ratioP1;P1;durP2;ratioP2;P2;SDS_P1;SDS_P2;PMS_P1;PMS_P2;Temp;Humidity;BMP_temperature;BMP_pressure;BME280_temperature;BME280_humidity;BME280_pressure;Samples;Min_cycle;Max_cycle;Signal;HPM_P1;HPM_P2
2022/07/01 00:01:36;;;;;;;17.67;13.45;;;;;;;19.10;100.00;100744.22;5045223;28;20009;-74
2022/07/01 00:04:02;;;;;;;20.15;13.50;;;;;;;19.13;100.00;100742.97;5043826;28;20048;-74
2022/07/01 00:06:27;;;;;;;16.52;12.98;;;;;;;19.03;100.00;100751.56;5045158;28;20032;-74
2022/07/01 00:08:53;;;;;;;16.80;12.87;;;;;;;19.12;100.00;100754.84;5044763;28;20029;-74
2022/07/01 00:11:18;;;;;;;18.40;13.40;;;;;;;19.14;100.00;100741.94;5045626;28;20039;-74
2022/07/01 00:13:44;;;;;;;14.80;12.70;;;;;;;19.06;100.00;100753.84;5050194;28;20107;-74
2022/07/01 00:16:09;;;;;;;15.40;13.33;;;;;;;19.08;100.00;100759.03;5049048;28;20516;-74
2022/07/01 00:18:34;;;;;;;14.47;12.73;;;;;;;19.09;100.00;100753.41;5049671;28;20041;-76
2022/07/01 00:21:03;;;;;;;18.00;13.90;;;;;;;19.15;100.00;100746.28;5048524;28;20032;-76
2022/07/01 00:23:28;;;;;;;14.70;12.27;;;;;;;19.09;100.00;100744.47;5049470;28;20037;-75
2022/07/01 00:25:54;;;;;;;15.20;13.00;;;;;;;19.06;100.00;100736.75;5050045;28;20032;-74
2022/07/01 00:28:20;;;;;;;17.23;13.45;;;;;;;18.98;100.00;100746.81;5048174;28;20043;-74
2022/07/01 00:30:45;;;;;;;16.80;14.00;;;;;;;18.97;100.00;100745.16;5049692;28;20025;-77
2022/07/01 00:33:11;;;;;;;19.45;13.30;;;;;;;18.94;100.00;100751.00;5049410;28;20064;-76
2022/07/01 00:35:36;;;;;;;18.47;13.77;;;;;;;18.89;100.00;100748.09;5049264;28;20402;-75
2022/07/01 00:38:02;;;;;;;23.10;13.77;;;;;;;18.92;100.00;100750.41;5047810;28;20112;-77
2022/07/01 00:40:27;;;;;;;18.23;13.10;;;;;;;18.96;100.00;100751.63;5047315;28;20028;-76
2022/07/01 00:42:53;;;;;;;19.63;13.47;;;;;;;18.84;100.00;100744.41;5049575;28;20025;-75
2022/07/01 00:45:18;;;;;;;18.33;15.27;;;;;;;18.77;100.00;100750.66;5048011;28;20048;-75
2022/07/01 00:47:44;;;;;;;16.52;13.55;;;;;;;18.82;100.00;100760.00;5048709;28;20037;-75
2022/07/01 00:50:13;;;;;;;18.65;14.40;;;;;;;18.87;100.00;100760.19;5046960;28;20024;-77
2022/07/01 00:52:42;;;;;;;18.60;14.43;;;;;;;18.85;100.00;100749.59;5047012;28;20119;-76
2022/07/01 00:55:11;;;;;;;17.40;14.75;;;;;;;18.94;100.00;100751.00;5047731;28;20021;-76
2022/07/01 00:57:37;;;;;;;18.02;14.00;;;;;;;18.92;100.00;100780.16;5047895;28;20029;-76
2022/07/01 01:00:13;;;;;;;22.50;13.90;;;;;;;18.97;100.00;100866.91;5047479;28;20021;-75
2022/07/01 01:02:38;;;;;;;19.00;16.00;;;;;;;18.95;100.00;100805.94;5047742;28;20099;-76
2022/07/01 01:05:05;;;;;;;17.90;15.33;;;;;;;19.00;100.00;100868.34;5048012;28;20028;-76
2022/07/01 01:07:32;;;;;;;18.05;14.57;;;;;;;19.11;100.00;100837.91;5042897;28;20535;-76
2022/07/01 01:10:01;;;;;;;;;;;;;;;19.14;100.00;100821.22;5027336;28;20021;-76
2022/07/01 01:12:27;;;;;;;21.55;14.52;;;;;;;19.25;100.00;100805.34;5045551;28;19912;-76
2022/07/01 01:14:53;;;;;;;;;;;;;;;19.31;100.00;100799.88;5048173;28;20070;-77
2022/07/01 01:17:19;;;;;;;;;;;;;;;19.31;100.00;100789.03;5051489;28;20280;-75
2022/07/01 01:19:45;;;;;;;22.92;14.73;;;;;;;19.19;100.00;100794.31;5036243;28;19913;-75
2022/07/01 01:22:14;;;;;;;23.70;14.65;;;;;;;19.00;100.00;100776.34;5047728;28;20109;-75
2022/07/01 01:24:40;;;;;;;20.65;15.63;;;;;;;18.97;100.00;100774.91;5048102;28;20028;-76
2022/07/01 01:27:06;;;;;;;20.00;15.43;;;;;;;18.96;100.00;100781.38;5047154;28;20040;-77
2022/07/01 01:29:32;;;;;;;18.38;15.95;;;;;;;18.95;100.00;100779.72;5046585;28;20028;-77
2022/07/01 01:31:58;;;;;;;18.42;16.02;;;;;;;18.94;100.00;100783.47;5047337;28;20375;-76
2022/07/01 01:34:24;;;;;;;23.90;16.48;;;;;;;18.90;100.00;100789.53;5047462;28;20102;-75
2022/07/01 01:36:49;;;;;;;21.70;16.67;;;;;;;18.88;100.00;100789.75;5048542;28;20033;-75
2022/07/01 01:39:17;;;;;;;20.73;15.77;;;;;;;18.90;100.00;100792.25;5030653;28;20033;-76
2022/07/01 01:41:44;;;;;;;21.98;15.90;;;;;;;18.92;100.00;100790.16;5046381;28;20370;-76
2022/07/01 01:44:09;;;;;;;19.38;15.93;;;;;;;18.90;100.00;100781.41;5056104;28;20429;-76
2022/07/01 01:46:36;;;;;;;21.58;15.23;;;;;;;18.88;100.00;100778.09;5045766;28;20033;-76
2022/07/01 01:49:01;;;;;;;;;;;;;;;18.92;100.00;100774.75;5045041;28;20119;-76
2022/07/01 01:51:27;;;;;;;19.40;14.68;;;;;;;18.85;100.00;100773.94;5045922;28;20106;-75
2022/07/01 01:53:52;;;;;;;22.27;16.67;;;;;;;18.83;100.00;100770.63;5044781;28;20078;-75
2022/07/01 01:56:18;;;;;;;23.73;18.02;;;;;;;18.78;100.00;100773.16;5044798;28;20037;-76
2022/07/01 01:58:44;;;;;;;19.80;16.42;;;;;;;18.84;100.00;100766.03;5045924;28;20063;-77
2022/07/01 02:01:13;;;;;;;18.80;15.43;;;;;;;18.89;100.00;100775.16;5044384;28;20092;-77
2022/07/01 02:03:40;;;;;;;20.30;16.65;;;;;;;18.85;100.00;100765.84;5046224;28;20404;-76
2022/07/01 02:06:07;;;;;;;22.42;16.00;;;;;;;18.75;100.00;100776.25;5044601;28;20127;-76
2022/07/01 02:08:32;;;;;;;25.20;18.85;;;;;;;18.72;100.00;100772.09;5036202;28;20032;-76
2022/07/01 02:10:58;;;;;;;20.97;16.53;;;;;;;18.78;100.00;100773.16;5044218;28;20159;-76
2022/07/01 02:13:24;;;;;;;23.88;16.05;;;;;;;18.87;100.00;100763.75;5027823;28;20384;-76
2022/07/01 02:15:49;;;;;;;23.08;15.95;;;;;;;18.91;100.00;100756.84;5047296;28;20093;-77
2022/07/01 02:18:15;;;;;;;33.37;20.23;;;;;;;18.73;100.00;100749.44;5046828;28;20104;-77
2022/07/01 02:20:42;;;;;;;26.58;18.52;;;;;;;18.74;100.00;100752.97;5044996;28;20548;-77
2022/07/01 02:23:08;;;;;;;29.13;21.17;;;;;;;18.77;100.00;100747.13;5046201;28;20542;-76
2022/07/01 02:25:33;;;;;;;;;;;;;;;18.59;100.00;100736.19;5044704;28;20524;-75
2022/07/01 02:27:59;;;;;;;;;;;;;;;18.60;100.00;100738.69;5045847;28;19917;-74
2022/07/01 02:30:25;;;;;;;27.03;20.23;;;;;;;18.66;100.00;100728.88;5045381;28;19996;-75
2022/07/01 02:32:51;;;;;;;24.90;20.10;;;;;;;18.69;100.00;100725.75;5043953;28;20013;-76
2022/07/01 02:35:16;;;;;;;30.70;20.40;;;;;;;18.61;100.00;100723.28;5043012;28;20075;-76
2022/07/01 02:37:42;;;;;;;26.85;17.30;;;;;;;18.56;100.00;100711.22;5044954;28;20040;-76
2022/07/01 02:40:09;;;;;;;25.40;17.70;;;;;;;18.64;100.00;100712.88;5043362;28;20037;-75
2022/07/01 02:42:37;;;;;;;22.70;16.70;;;;;;;18.70;100.00;100721.97;5044063;28;20028;-76
2022/07/01 02:45:04;;;;;;;27.48;17.33;;;;;;;18.62;100.00;100731.19;5044795;28;20043;-75
2022/07/01 02:47:37;;;;;;;22.65;17.08;;;;;;;18.61;100.00;100731.38;5021575;28;20267;-76
2022/07/01 02:50:04;;;;;;;29.90;18.00;;;;;;;18.63;100.00;100732.00;5044700;28;20041;-76
2022/07/01 02:52:30;;;;;;;22.45;18.25;;;;;;;18.59;100.00;100728.91;5039387;28;20504;-76
2022/07/01 02:54:56;;;;;;;29.70;20.13;;;;;;;18.62;100.00;100735.78;5044923;28;20036;-77
2022/07/01 02:57:22;;;;;;;28.70;19.48;;;;;;;18.54;100.00;100728.72;5044961;28;20382;-76
2022/07/01 02:59:47;;;;;;;;;;;;;;;18.45;100.00;100719.19;5043599;28;20300;-77
2022/07/01 03:02:13;;;;;;;27.38;20.80;;;;;;;18.41;100.00;100718.81;5045087;28;19924;-76
2022/07/01 03:04:38;;;;;;;27.27;21.07;;;;;;;18.35;100.00;100714.25;5043816;28;20036;-75
2022/07/01 03:07:04;;;;;;;31.57;22.10;;;;;;;18.45;100.00;100694.84;5043647;28;20271;-75
2022/07/01 03:09:29;;;;;;;33.97;24.50;;;;;;;18.52;100.00;100698.38;5043010;28;20478;-75
2022/07/01 03:11:54;;;;;;;28.03;22.43;;;;;;;18.58;100.00;100691.28;5043844;28;20302;-76
2022/07/01 03:14:20;;;;;;;29.87;22.77;;;;;;;18.58;100.00;100675.06;5044724;28;20056;-76
2022/07/01 03:16:47;;;;;;;40.27;25.40;;;;;;;18.62;100.00;100679.00;5043574;28;20279;-77
2022/07/01 03:19:13;;;;;;;44.70;25.75;;;;;;;18.41;100.00;100691.78;5042341;28;20044;-76
2022/07/01 03:21:38;;;;;;;34.10;25.42;;;;;;;18.38;100.00;100697.63;5043535;28;21061;-75
2022/07/01 03:24:04;;;;;;;40.77;28.50;;;;;;;18.28;100.00;100708.03;5044690;28;20123;-75
2022/07/01 03:26:29;;;;;;;40.57;27.97;;;;;;;18.24;100.00;100717.63;5044927;28;20029;-76
2022/07/01 03:28:55;;;;;;;43.83;29.20;;;;;;;18.28;100.00;100719.69;5043089;28;20275;-77
2022/07/01 03:31:20;;;;;;;37.13;25.27;;;;;;;18.32;100.00;100725.50;5043322;28;20025;-76
2022/07/01 03:33:45;;;;;;;34.13;23.33;;;;;;;18.33;100.00;100719.88;5045021;28;20497;-76
2022/07/01 03:36:11;;;;;;;30.50;24.07;;;;;;;18.23;100.00;100713.25;5041089;28;20029;-77
2022/07/01 03:38:36;;;;;;;35.17;24.40;;;;;;;18.31;100.00;100727.38;5044758;28;20032;-76
2022/07/01 03:41:02;;;;;;;31.47;23.10;;;;;;;18.31;100.00;100719.25;5043178;28;20271;-77
2022/07/01 03:43:27;;;;;;;35.60;23.93;;;;;;;18.31;100.00;100732.78;5044262;28;20024;-76
2022/07/01 03:45:52;;;;;;;41.17;26.97;;;;;;;18.22;100.00;100719.72;5044869;28;20060;-76
2022/07/01 03:48:18;;;;;;;36.90;25.93;;;;;;;18.18;100.00;100729.28;5049478;22;20045;-73
2022/07/01 03:50:43;;;;;;;36.80;25.63;;;;;;;18.05;100.00;100722.91;5032544;28;20025;-72
2022/07/01 03:55:53;;;;;;;35.05;24.23;;;;;;;18.12;100.00;100726.41;5028155;28;20400;-75
2022/07/01 03:58:18;;;;;;;31.83;22.07;;;;;;;18.19;100.00;100737.19;5038413;28;20131;-75
2022/07/01 04:00:44;;;;;;;34.25;24.42;;;;;;;18.23;100.00;100734.88;5027837;28;20393;-73
2022/07/01 04:03:09;;;;;;;28.23;21.93;;;;;;;18.21;100.00;100739.66;5024548;28;20049;-75
2022/07/01 04:05:37;;;;;;;39.25;26.23;;;;;;;18.23;100.00;100753.78;5027011;28;20035;-75
2022/07/01 04:08:07;;;;;;;31.25;22.63;;;;;;;18.23;100.00;100765.44;5027860;28;20033;-74
2022/07/01 04:10:34;;;;;;;35.58;24.52;;;;;;;18.29;100.00;100779.97;5021948;28;20173;-76
2022/07/01 04:13:01;;;;;;;29.42;22.75;;;;;;;18.32;100.00;100769.56;5027979;28;20033;-75
2022/07/01 04:15:26;;;;;;;29.90;21.92;;;;;;;18.43;100.00;100778.06;5028047;28;20037;-76
2022/07/01 04:17:52;;;;;;;37.20;24.97;;;;;;;18.37;100.00;100781.59;5035515;28;20033;-75
2022/07/01 04:20:17;;;;;;;32.53;22.50;;;;;;;18.31;100.00;100788.72;5027440;28;20280;-76
2022/07/01 04:22:43;;;;;;;35.57;24.33;;;;;;;18.22;100.00;100785.41;5027494;28;20037;-76
2022/07/01 04:25:08;;;;;;;35.92;25.50;;;;;;;18.16;100.00;100790.81;5026286;28;20038;-76
2022/07/01 04:27:34;;;;;;;38.17;25.42;;;;;;;18.17;100.00;100800.56;5027777;28;20057;-73
2022/07/01 04:30:02;;;;;;;31.98;23.27;;;;;;;18.22;100.00;100807.00;5027323;28;20493;-74
2022/07/01 04:32:27;;;;;;;37.20;25.33;;;;;;;18.33;100.00;100802.81;5027571;28;20025;-75
2022/07/01 04:34:52;;;;;;;35.93;25.80;;;;;;;18.34;100.00;100810.72;5026444;28;20041;-74
2022/07/01 04:37:18;;;;;;;32.87;25.50;;;;;;;18.34;100.00;100809.91;5027719;28;20037;-75
2022/07/01 04:39:43;;;;;;;38.33;28.42;;;;;;;18.31;100.00;100813.84;5039971;28;20044;-76
2022/07/01 04:42:09;;;;;;;36.30;25.97;;;;;;;18.37;100.00;100831.09;5025968;28;20033;-76
2022/07/01 04:44:36;;;;;;;36.33;25.70;;;;;;;18.39;100.00;100841.69;5027466;28;20079;-74
2022/07/01 04:47:03;;;;;;;29.88;20.65;;;;;;;18.42;100.00;100833.16;5027600;28;20386;-74
2022/07/01 04:49:28;;;;;;;24.20;20.17;;;;;;;18.35;100.00;100833.16;5027282;28;20136;-74
2022/07/01 04:51:55;;;;;;;25.30;19.55;;;;;;;18.34;100.00;100842.31;5027301;28;20044;-75
2022/07/01 04:54:20;;;;;;;;;;;;;;;18.31;100.00;100853.56;5042990;28;20043;-75
2022/07/01 04:56:46;;;;;;;29.75;20.48;;;;;;;18.35;100.00;100860.19;5027068;28;20277;-74
2022/07/01 04:59:12;;;;;;;23.85;17.58;;;;;;;18.40;100.00;100873.91;5024715;28;20049;-74
2022/07/01 05:01:38;;;;;;;20.02;13.68;;;;;;;18.29;100.00;100867.28;5027749;28;20053;-75
2022/07/01 05:04:03;;;;;;;15.55;12.52;;;;;;;18.27;100.00;100876.66;5027712;28;20203;-75
2022/07/01 05:06:29;;;;;;;15.02;11.00;;;;;;;18.14;100.00;100856.72;5022015;28;20040;-75
2022/07/01 05:08:55;;;;;;;15.82;12.75;;;;;;;18.31;100.00;100862.50;5025534;28;20029;-75
2022/07/01 05:11:20;;;;;;;14.93;11.48;;;;;;;18.39;100.00;100856.03;5025754;28;20391;-75
2022/07/01 05:13:46;;;;;;;15.20;11.80;;;;;;;18.45;100.00;100847.09;5042408;28;20124;-75
2022/07/01 05:16:11;;;;;;;20.20;13.77;;;;;;;18.84;100.00;100841.78;5023322;28;20032;-75
2022/07/01 05:24:06;;;;;;;15.63;11.45;;;;;;;19.01;100.00;100815.06;5026863;28;20041;-75
2022/07/01 05:26:32;;;;;;;16.02;13.00;;;;;;;18.96;100.00;100803.03;5025482;28;20497;-75
2022/07/01 05:28:57;;;;;;;15.63;12.80;;;;;;;18.90;100.00;100814.69;5025173;28;20037;-75
2022/07/01 05:31:23;;;;;;;19.17;14.70;;;;;;;18.87;100.00;100825.97;5025305;28;20482;-75
2022/07/01 05:33:48;;;;;;;19.80;14.33;;;;;;;18.85;100.00;100832.63;5026768;28;20040;-76
2022/07/01 05:36:14;;;;;;;15.75;12.65;;;;;;;18.81;100.00;100837.63;5025282;28;20276;-76
2022/07/01 05:38:39;;;;;;;15.43;11.55;;;;;;;18.90;100.00;100838.22;5025424;28;20033;-75
2022/07/01 05:41:06;;;;;;;11.83;10.33;;;;;;;19.33;100.00;100830.25;5025057;28;20044;-75
2022/07/01 05:43:32;;;;;;;9.75;8.75;;;;;;;19.91;100.00;100837.34;5025326;28;20398;-75
2022/07/01 05:45:57;;;;;;;10.10;8.07;;;;;;;20.10;100.00;100835.50;5024667;28;20060;-76
2022/07/01 05:48:23;;;;;;;10.87;8.13;;;;;;;20.08;100.00;100829.47;5025568;28;20838;-75
2022/07/01 05:50:49;;;;;;;12.23;9.03;;;;;;;20.07;100.00;100830.56;5024113;28;20033;-75
2022/07/01 05:53:15;;;;;;;8.40;7.60;;;;;;;19.61;100.00;100843.41;5024525;28;20041;-75
2022/07/01 05:55:40;;;;;;;7.97;6.77;;;;;;;19.30;100.00;100852.38;5026126;28;20028;-75
2022/07/01 05:58:09;;;;;;;7.88;6.80;;;;;;;19.29;100.00;100872.38;5007650;28;20288;-76
2022/07/01 06:00:34;;;;;;;7.05;6.35;;;;;;;19.01;100.00;100869.16;5025409;28;20018;-76
2022/07/01 06:03:00;;;;;;;10.10;8.53;;;;;;;19.00;100.00;100883.75;5024472;28;20374;-75
2022/07/01 06:05:26;;;;;;;12.32;8.85;;;;;;;18.89;100.00;100888.75;5026136;28;20080;-75
2022/07/01 06:07:51;;;;;;;10.30;9.07;;;;;;;18.77;100.00;100920.22;5024076;28;20030;-76
2022/07/01 06:10:17;;;;;;;8.97;8.00;;;;;;;18.74;100.00;100934.97;5024982;28;20375;-76
2022/07/01 06:12:42;;;;;;;12.30;9.23;;;;;;;18.70;100.00;100938.31;5025598;28;20068;-76
2022/07/01 06:15:10;;;;;;;15.13;11.37;;;;;;;18.59;100.00;100944.38;5025890;28;20048;-77
2022/07/01 06:17:36;;;;;;;14.75;10.35;;;;;;;18.50;100.00;100951.88;5031574;28;20045;-75
2022/07/01 06:20:02;;;;;;;17.17;11.07;;;;;;;18.43;100.00;100951.06;5024740;28;20028;-74
2022/07/01 06:22:27;;;;;;;18.27;12.27;;;;;;;18.34;100.00;100947.75;5025668;28;20524;-74
2022/07/01 06:24:52;;;;;;;19.17;12.40;;;;;;;18.06;100.00;100945.25;5024459;28;20730;-73
2022/07/01 06:27:18;;;;;;;16.30;9.47;;;;;;;17.80;100.00;100949.53;5025397;28;20038;-74
2022/07/01 06:29:43;;;;;;;15.87;7.50;;;;;;;17.35;100.00;100961.84;5007609;28;20021;-72
2022/07/01 06:32:09;;;;;;;14.17;6.93;;;;;;;17.24;100.00;100977.59;5025413;28;20041;-73
2022/07/01 06:34:34;;;;;;;13.40;5.40;;;;;;;16.82;100.00;100992.09;5024305;28;20104;-74
2022/07/01 06:37:00;;;;;;;17.42;6.47;;;;;;;16.93;100.00;101006.88;5024128;28;20033;-74
2022/07/01 06:39:28;;;;;;;17.33;6.13;;;;;;;16.83;100.00;101029.69;5023610;28;20036;-74
2022/07/01 06:41:54;;;;;;;19.85;5.95;;;;;;;16.49;100.00;101040.34;5023878;28;20291;-74
2022/07/01 06:44:20;;;;;;;17.40;5.93;;;;;;;16.39;100.00;101054.16;5024152;28;20087;-75
2022/07/01 06:46:46;;;;;;;18.95;5.63;;;;;;;16.28;100.00;101042.03;5025311;28;20037;-74
2022/07/01 06:49:12;;;;;;;15.50;6.30;;;;;;;16.39;100.00;101028.03;5023830;28;20029;-74
2022/07/01 06:51:37;;;;;;;;;;;;;;;16.44;100.00;101014.81;5024320;28;20084;-73
2022/07/01 06:54:03;;;;;;;;;;;;;;;16.41;100.00;100999.03;5024437;28;20460;-73
2022/07/01 06:56:28;;;;;;;22.20;6.93;;;;;;;16.38;100.00;101002.09;5040319;28;19916;-72
2022/07/01 06:58:54;;;;;;;28.83;7.60;;;;;;;16.23;100.00;100995.97;5023846;28;20025;-74
2022/07/01 07:01:20;;;;;;;20.10;7.37;;;;;;;16.22;100.00;101000.53;5023660;28;20030;-75
2022/07/01 07:03:45;;;;;;;18.48;6.97;;;;;;;16.18;100.00;100998.44;5025152;28;20753;-74
2022/07/01 07:06:11;;;;;;;27.63;7.80;;;;;;;16.26;100.00;100995.59;5023895;28;20037;-75
2022/07/01 07:08:36;;;;;;;19.97;6.93;;;;;;;16.22;100.00;100994.31;5023851;28;20486;-75
2022/07/01 07:11:03;;;;;;;23.90;8.55;;;;;;;16.32;100.00;101004.75;5023012;28;20041;-74
2022/07/01 07:13:28;;;;;;;22.40;7.65;;;;;;;16.16;100.00;101000.47;5024272;28;20576;-73
2022/07/01 07:15:54;;;;;;;20.00;8.05;;;;;;;16.25;100.00;101020.88;5024696;28;20163;-74
2022/07/01 07:18:20;;;;;;;18.60;7.65;;;;;;;16.14;100.00;101030.28;5023536;28;20044;-73
2022/07/01 07:20:47;;;;;;;20.17;7.55;;;;;;;16.03;100.00;101028.94;5024925;28;20471;-75
2022/07/01 07:23:13;;;;;;;24.20;7.90;;;;;;;16.21;100.00;101035.75;5026834;28;20071;-72
2022/07/01 07:25:39;;;;;;;19.23;7.07;;;;;;;16.07;100.00;101044.72;5027713;28;20033;-71
2022/07/01 07:28:04;;;;;;;21.88;7.63;;;;;;;15.97;100.00;101050.44;5011128;28;20045;-74
2022/07/01 07:30:30;;;;;;;20.27;6.87;;;;;;;15.92;100.00;101042.06;5028555;28;20396;-73
2022/07/01 07:32:55;;;;;;;21.07;8.03;;;;;;;16.02;100.00;101056.91;5029034;28;20517;-75
2022/07/01 07:35:20;;;;;;;19.90;6.10;;;;;;;16.02;100.00;101051.50;5027490;28;20083;-75
2022/07/01 07:37:46;;;;;;;17.97;6.40;;;;;;;15.97;100.00;101045.88;5027785;28;20104;-75
2022/07/01 07:40:17;;;;;;;19.83;7.20;;;;;;;16.04;100.00;101048.63;5025957;28;20087;-75
2022/07/01 07:42:44;;;;;;;19.80;6.68;;;;;;;16.12;100.00;101053.06;5027913;28;20037;-75
2022/07/01 07:45:11;;;;;;;17.42;6.82;;;;;;;16.14;100.00;101051.00;5029054;28;20378;-75
2022/07/01 07:47:37;;;;;;;14.55;6.03;;;;;;;15.97;100.00;101024.31;5010911;28;20723;-73
2022/07/01 07:50:04;;;;;;;16.13;6.35;;;;;;;15.86;100.00;101019.44;5028246;28;20091;-74
2022/07/01 07:52:30;;;;;;;14.57;6.72;;;;;;;15.96;100.00;101011.03;5027812;28;20029;-74
2022/07/01 07:54:55;;;;;;;10.95;7.43;;;;;;;15.96;100.00;101016.44;5021178;28;20029;-74
2022/07/01 07:57:21;;;;;;;14.60;6.90;;;;;;;15.90;100.00;101018.03;5021514;28;20041;-74
2022/07/01 07:59:47;;;;;;;13.50;7.10;;;;;;;15.83;100.00;100998.28;5022092;28;20028;-75
2022/07/01 08:02:12;;;;;;;10.00;5.88;;;;;;;16.03;100.00;101002.00;5021400;28;20044;-75
2022/07/01 08:04:38;;;;;;;14.40;5.90;;;;;;;16.06;100.00;101005.34;5023579;28;20021;-75
2022/07/01 08:07:03;;;;;;;10.77;5.77;;;;;;;16.02;100.00;100981.50;5019954;28;20042;-75
2022/07/01 08:09:29;;;;;;;6.67;4.77;;;;;;;16.06;100.00;100967.63;5022007;28;20364;-73
2022/07/01 08:11:54;;;;;;;11.63;5.30;;;;;;;16.05;100.00;100991.03;5024440;28;20044;-75
2022/07/01 08:14:19;;;;;;;9.97;4.40;;;;;;;16.19;100.00;101027.03;5028482;28;20030;-75
2022/07/01 08:16:45;;;;;;;9.57;4.00;;;;;;;16.01;100.00;101039.09;5028240;28;20056;-74
2022/07/01 08:19:10;;;;;;;7.80;4.10;;;;;;;16.16;100.00;101048.97;5028045;28;20029;-74
2022/07/01 08:21:36;;;;;;;10.13;4.60;;;;;;;16.35;100.00;101053.69;5027916;28;20434;-75
2022/07/01 08:24:01;;;;;;;9.57;5.03;;;;;;;16.31;100.00;101041.63;5027905;28;20033;-75
2022/07/01 08:26:28;;;;;;;5.80;3.28;;;;;;;16.19;100.00;101021.63;5027916;28;20033;-75
2022/07/01 08:28:54;;;;;;;7.53;3.17;;;;;;;16.43;100.00;101021.22;5010299;28;20029;-75
2022/07/01 08:31:19;;;;;;;10.03;4.37;;;;;;;16.78;100.00;101026.69;5027303;28;20124;-74
2022/07/01 08:33:45;;;;;;;5.23;2.07;;;;;;;17.33;100.00;101013.34;5026377;28;20032;-74
2022/07/01 08:36:13;;;;;;;6.33;2.13;;;;;;;17.61;100.00;100997.06;5026718;28;20127;-75
2022/07/01 08:38:40;;;;;;;4.15;1.65;;;;;;;17.52;100.00;100984.78;5026222;28;20036;-76
2022/07/01 08:41:05;;;;;;;9.73;2.22;;;;;;;17.70;100.00;100973.41;5025972;28;20029;-75
2022/07/01 08:43:31;;;;;;;3.87;2.10;;;;;;;18.07;100.00;100974.72;5027733;28;20470;-75
2022/07/01 08:46:01;;;;;;;4.43;1.10;;;;;;;18.31;100.00;100967.09;5026436;28;20083;-75
2022/07/01 08:48:28;;;;;;;2.97;1.25;;;;;;;18.59;100.00;100963.28;5027360;28;20497;-76
2022/07/01 08:50:54;;;;;;;5.80;1.40;;;;;;;19.05;100.00;100978.63;5026017;28;20037;-76
2022/07/01 08:53:19;;;;;;;3.70;0.90;;;;;;;18.56;100.00;100972.66;5026306;28;20049;-76
2022/07/01 08:58:28;;;;;;;5.32;1.40;;;;;;;17.62;100.00;100979.81;5028138;28;20048;-77
2022/07/01 09:01:15;;;;;;;4.10;2.23;;;;;;;17.53;100.00;100991.81;5016995;28;20026;-76
2022/07/01 09:03:41;;;;;;;2.58;1.63;;;;;;;17.37;100.00;101006.53;5023302;28;20120;-76
2022/07/01 09:06:18;;;;;;;5.43;1.48;;;;;;;17.14;100.00;101022.16;5026204;28;20018;-76
2022/07/01 09:08:44;;;;;;;3.28;1.42;;;;;;;17.14;100.00;101030.25;5026244;28;20090;-76
2022/07/01 09:11:17;;;;;;;6.65;1.52;;;;;;;17.50;100.00;101057.03;5025587;28;20475;-75
2022/07/01 09:13:45;;;;;;;3.65;1.35;;;;;;;17.78;100.00;101058.81;5025931;28;20034;-75
2022/07/01 09:16:16;;;;;;;4.03;1.20;;;;;;;17.87;100.00;101054.91;5025415;28;20455;-76
2022/07/01 09:19:02;;;;;;;4.10;1.20;;;;;;;17.90;100.00;101019.41;5025915;28;20067;-76
2022/07/01 09:21:32;;;;;;;2.75;1.30;;;;;;;17.72;100.00;101017.22;5025563;28;20040;-76
2022/07/01 09:24:28;;;;;;;3.72;1.77;;;;;;;17.76;100.00;101025.75;5026777;28;20048;-76
2022/07/01 09:26:59;;;;;;;3.72;1.60;;;;;;;18.03;100.00;101019.44;5006346;28;20418;-77
2022/07/01 09:29:31;;;;;;;3.67;1.27;;;;;;;18.05;100.00;101011.97;5026377;28;20033;-77
2022/07/01 09:31:58;;;;;;;6.35;1.83;;;;;;;17.58;100.00;100996.63;5009548;28;20041;-74
2022/07/01 09:34:23;;;;;;;4.63;1.30;;;;;;;17.47;100.00;100992.66;5026199;28;20529;-77
2022/07/01 09:36:56;;;;;;;3.83;1.70;;;;;;;17.34;100.00;101012.31;5026230;28;20042;-77
2022/07/01 09:39:22;;;;;;;4.00;1.50;;;;;;;17.32;100.00;101027.03;5024534;28;20037;-76
2022/07/01 09:41:47;;;;;;;4.13;1.67;;;;;;;17.41;100.00;101042.84;5026961;28;20025;-78
2022/07/01 09:44:13;;;;;;;3.30;2.03;;;;;;;17.77;100.00;101054.41;5025490;28;20295;-75
2022/07/01 09:46:51;;;;;;;4.68;1.30;;;;;;;18.06;100.00;101054.13;5025296;28;20740;-77
2022/07/01 09:49:17;;;;;;;2.90;1.60;;;;;;;18.10;100.00;101032.97;5040075;23;20041;-76
2022/07/01 09:51:43;;;;;;;4.50;1.93;;;;;;;18.20;100.00;101040.66;5033051;28;20494;-76
2022/07/01 09:54:12;;;;;;;2.40;1.48;;;;;;;18.09;100.00;101040.19;5032791;28;20044;-76
2022/07/01 09:56:37;;;;;;;4.00;1.33;;;;;;;17.93;100.00;101040.59;5029189;28;20394;-76
2022/07/01 09:59:03;;;;;;;8.37;2.03;;;;;;;17.94;100.00;101039.56;5032144;28;20041;-76
2022/07/01 10:01:30;;;;;;;5.55;1.42;;;;;;;18.03;100.00;101032.13;5012994;28;20133;-76
2022/07/01 10:03:56;;;;;;;3.15;1.40;;;;;;;18.28;100.00;101054.78;5032065;28;20179;-76
2022/07/01 10:06:37;;;;;;;3.10;0.90;;;;;;;18.45;100.00;101041.72;5014386;28;20023;-76
2022/07/01 10:09:43;;;;;;;4.63;1.40;;;;;;;18.22;100.00;101022.38;5031916;28;20107;-76
2022/07/01 10:12:18;;;;;;;3.20;1.15;;;;;;;18.02;100.00;101017.75;5036403;28;20087;-76
2022/07/01 10:14:44;;;;;;;2.90;1.20;;;;;;;17.74;100.00;101023.25;5028458;28;20108;-76
2022/07/01 10:17:09;;;;;;;2.60;1.50;;;;;;;17.57;100.00;101041.69;5031556;28;20115;-75
2022/07/01 10:19:35;;;;;;;3.93;1.53;;;;;;;17.50;100.00;101054.31;5028727;28;20041;-75
2022/07/01 10:22:30;;;;;;;3.43;1.30;;;;;;;17.24;100.00;101080.13;5031371;28;20038;-75
2022/07/01 10:25:15;;;;;;;1.60;1.17;;;;;;;17.05;100.00;101095.16;5022343;28;20041;-75
2022/07/01 10:27:41;;;;;;;;;;;;;;;17.03;100.00;101104.47;5026440;28;20029;-75
2022/07/01 10:30:16;;;;;;;;;;;;;;;17.12;100.00;101129.47;5024784;28;20249;-75
2022/07/01 10:32:51;;;;;;;4.75;1.60;;;;;;;16.59;100.00;101102.84;5032165;28;19956;-75
2022/07/01 10:35:16;;;;;;;2.83;1.50;;;;;;;16.54;100.00;101129.53;5026195;28;20037;-75
2022/07/01 10:38:01;;;;;;;2.70;1.40;;;;;;;16.74;100.00;101151.28;5026487;28;20028;-75
2022/07/01 10:40:46;;;;;;;6.80;1.35;;;;;;;16.65;100.00;101150.59;5029725;28;20029;-76
2022/07/01 10:43:16;;;;;;;1.08;1.02;;;;;;;16.61;100.00;101157.41;5028378;28;20523;-76
2022/07/01 10:45:43;;;;;;;3.63;1.10;;;;;;;16.52;100.00;101136.97;5029328;28;20039;-75
2022/07/01 10:48:23;;;;;;;2.17;0.90;;;;;;;16.28;100.00;101117.47;5031283;28;20044;-76
2022/07/01 10:50:50;;;;;;;1.90;1.10;;;;;;;16.25;100.00;101128.63;5028461;28;20087;-76
2022/07/01 10:53:16;;;;;;;4.95;1.52;;;;;;;16.20;100.00;101137.28;5030096;28;20099;-76
2022/07/01 10:55:47;;;;;;;3.53;1.10;;;;;;;16.25;100.00;101164.47;5029618;28;20117;-76
2022/07/01 10:58:14;;;;;;;6.15;1.35;;;;;;;16.16;100.00;101184.47;5028694;28;20036;-76
2022/07/01 11:00:50;;;;;;;;;;;;;;;16.25;100.00;101215.66;5028790;28;20021;-75
2022/07/01 11:03:22;;;;;;;3.00;1.33;;;;;;;16.34;100.00;101235.25;5028161;28;20492;-75
2022/07/01 11:05:55;;;;;;;4.43;1.42;;;;;;;16.19;100.00;101239.81;5029044;28;20510;-75
2022/07/01 11:08:21;;;;;;;4.63;1.67;;;;;;;16.01;100.00;101238.38;5031200;28;20037;-75
2022/07/01 11:10:51;;;;;;;6.97;1.80;;;;;;;16.13;100.00;101240.56;5028281;28;20560;-75
2022/07/01 11:13:19;;;;;;;5.22;2.03;;;;;;;16.12;100.00;101255.91;5031826;28;20036;-74
2022/07/01 11:15:46;;;;;;;7.07;2.10;;;;;;;16.03;100.00;101255.16;5029646;28;20101;-74
2022/07/01 11:18:13;;;;;;;5.40;1.92;;;;;;;15.89;100.00;101257.84;5026149;28;20048;-74
2022/07/01 11:20:38;;;;;;;6.53;2.67;;;;;;;15.88;100.00;101254.31;5029375;28;20052;-75
2022/07/01 11:23:04;;;;;;;3.17;1.93;;;;;;;15.87;100.00;101260.72;5030760;28;20124;-74